createdAt,value
2018-03-31T00:00:47.752Z,39.80
2018-03-31T00:03:13.608Z,39.04
2018-03-31T00:05:39.468Z,39.25
2018-03-31T00:08:05.315Z,39.05
2018-03-31T00:10:31.188Z,39.48
2018-03-31T00:12:57.096Z,39.13
2018-03-31T00:15:22.950Z,40.22
2018-03-31T00:17:48.822Z,39.52
2018-03-31T00:20:14.679Z,38.90
2018-03-31T00:22:41.451Z,39.09
2018-03-31T00:25:07.338Z,38.90
2018-03-31T00:27:33.199Z,39.22
2018-03-31T00:29:59.233Z,39.33
2018-03-31T00:32:25.096Z,39.25
2018-03-31T00:34:50.953Z,39.04
2018-03-31T00:37:16.861Z,39.51
2018-03-31T00:39:42.716Z,39.21
2018-03-31T00:42:08.563Z,39.40
2018-03-31T00:44:34.414Z,39.11
2018-03-31T00:47:00.263Z,39.30
2018-03-31T00:49:26.118Z,39.15
2018-03-31T00:51:52.005Z,39.15
2018-03-31T00:54:17.895Z,39.23
2018-03-31T00:56:43.802Z,41.47
2018-03-31T00:59:10.570Z,39.33
2018-03-31T01:01:36.440Z,39.67
2018-03-31T01:04:02.305Z,39.33
2018-03-31T01:06:28.206Z,39.58
2018-03-31T01:08:54.054Z,39.27
2018-03-31T01:11:19.898Z,39.77
2018-03-31T01:13:46.797Z,40.08
2018-03-31T01:16:12.656Z,39.17
2018-03-31T01:18:38.515Z,39.34
2018-03-31T01:21:04.370Z,39.61
2018-03-31T01:23:30.222Z,39.61
2018-03-31T01:25:56.079Z,39.59
2018-03-31T01:28:21.931Z,40.19
2018-03-31T01:30:47.792Z,39.87
2018-03-31T01:33:13.650Z,40.37
2018-03-31T01:35:39.529Z,39.29
2018-03-31T01:38:05.382Z,40.57
2018-03-31T01:40:31.244Z,39.83
2018-03-31T01:42:57.149Z,39.56
2018-03-31T01:45:23.008Z,39.28
2018-03-31T01:47:48.861Z,39.35
2018-03-31T01:50:14.718Z,39.52
2018-03-31T01:52:40.565Z,40.62
2018-03-31T01:55:06.416Z,40.77
2018-03-31T01:57:32.267Z,41.75
2018-03-31T01:59:58.126Z,39.87
2018-03-31T02:02:24.083Z,39.84
2018-03-31T02:04:49.977Z,39.81
2018-03-31T02:07:15.832Z,39.50
2018-03-31T02:09:41.694Z,39.71
2018-03-31T02:12:07.544Z,39.26
2018-03-31T02:14:33.389Z,39.59
2018-03-31T02:16:59.234Z,39.51
2018-03-31T02:19:25.110Z,39.88
2018-03-31T02:21:50.958Z,40.01
2018-03-31T02:24:16.808Z,39.44
2018-03-31T02:26:42.670Z,40.27
2018-03-31T02:29:08.568Z,39.47
2018-03-31T02:31:34.422Z,40.68
2018-03-31T02:34:00.307Z,39.45
2018-03-31T02:36:26.167Z,40.37
2018-03-31T02:38:52.018Z,39.52
2018-03-31T02:41:17.882Z,39.41
2018-03-31T02:43:43.772Z,39.83
2018-03-31T02:46:09.626Z,39.78
2018-03-31T02:48:35.572Z,39.79
2018-03-31T02:51:01.447Z,39.57
2018-03-31T02:53:27.303Z,39.44
2018-03-31T02:55:53.241Z,39.45
2018-03-31T02:58:19.092Z,39.55
2018-03-31T03:00:44.949Z,39.64
2018-03-31T03:03:10.818Z,39.52
2018-03-31T03:05:36.756Z,40.12
2018-03-31T03:08:02.611Z,39.31
2018-03-31T03:10:28.463Z,39.51
2018-03-31T03:12:54.364Z,39.70
2018-03-31T03:15:20.214Z,39.68
2018-03-31T03:17:46.102Z,39.60
2018-03-31T03:20:11.951Z,39.99
2018-03-31T03:22:37.843Z,40.47
2018-03-31T03:25:03.698Z,39.50
2018-03-31T03:27:29.543Z,40.31
2018-03-31T03:29:55.438Z,39.39
2018-03-31T03:32:21.290Z,39.85
2018-03-31T03:34:47.138Z,39.71
2018-03-31T03:37:12.991Z,39.39
2018-03-31T03:39:38.856Z,39.49
2018-03-31T03:42:04.713Z,39.75
2018-03-31T03:44:30.642Z,38.98
2018-03-31T03:46:56.491Z,39.47
2018-03-31T03:49:22.338Z,39.79
2018-03-31T03:51:48.361Z,39.65
2018-03-31T03:54:14.207Z,39.26
2018-03-31T03:56:40.102Z,39.53
2018-03-31T03:59:05.950Z,39.65
2018-03-31T04:01:31.808Z,39.04
2018-03-31T04:03:57.657Z,39.81
2018-03-31T04:06:23.515Z,39.04
2018-03-31T04:08:49.401Z,39.49
2018-03-31T04:11:15.298Z,39.44
2018-03-31T04:13:41.196Z,39.65
2018-03-31T04:16:23.352Z,39.29
2018-03-31T04:18:49.317Z,39.02
2018-03-31T04:21:15.202Z,39.65
2018-03-31T04:23:41.068Z,39.91
2018-03-31T04:26:06.926Z,39.39
2018-03-31T04:28:32.783Z,39.74
2018-03-31T04:30:58.634Z,39.51
2018-03-31T04:33:24.494Z,39.73
2018-03-31T04:35:50.350Z,39.64
2018-03-31T04:38:16.203Z,39.79
2018-03-31T04:40:42.155Z,39.65
2018-03-31T04:43:08.007Z,39.84
2018-03-31T04:45:33.902Z,38.87
2018-03-31T04:47:59.749Z,38.98
2018-03-31T04:50:25.637Z,38.85
2018-03-31T04:52:51.534Z,39.85
2018-03-31T04:55:17.400Z,38.99
2018-03-31T04:57:43.453Z,38.74
2018-03-31T05:00:09.308Z,39.33
2018-03-31T05:02:35.203Z,39.82
2018-03-31T05:05:01.106Z,39.47
2018-03-31T05:07:26.965Z,38.88
2018-03-31T05:09:52.826Z,39.14
2018-03-31T05:12:18.731Z,39.07
2018-03-31T05:14:44.582Z,39.14
2018-03-31T05:17:10.436Z,39.95
2018-03-31T05:19:36.331Z,39.75
2018-03-31T05:22:02.187Z,38.98
2018-03-31T05:24:28.046Z,38.85
2018-03-31T05:26:54.895Z,39.09
2018-03-31T05:29:20.747Z,38.72
2018-03-31T05:31:46.688Z,38.90
2018-03-31T05:34:12.574Z,38.55
2018-03-31T05:36:38.476Z,38.69
2018-03-31T05:39:04.370Z,38.90
2018-03-31T05:41:30.222Z,39.41
2018-03-31T05:43:56.119Z,38.95
2018-03-31T05:46:21.970Z,39.03
2018-03-31T05:48:47.867Z,38.70
2018-03-31T05:51:13.770Z,39.32
2018-03-31T05:53:39.634Z,39.05
2018-03-31T05:56:05.491Z,38.80
2018-03-31T05:58:31.355Z,38.55
2018-03-31T06:00:57.214Z,39.99
2018-03-31T06:05:55.587Z,39.67
2018-03-31T06:08:21.436Z,38.89
2018-03-31T06:10:47.288Z,39.35
2018-03-31T06:13:13.143Z,39.01
2018-03-31T06:15:39.026Z,38.23
2018-03-31T06:18:04.930Z,38.42
2018-03-31T06:20:30.828Z,38.61
2018-03-31T06:22:56.681Z,38.93
2018-03-31T06:25:22.539Z,38.44
2018-03-31T06:27:48.402Z,38.47
2018-03-31T06:30:14.302Z,38.59
2018-03-31T06:32:40.222Z,38.70
2018-03-31T06:35:06.084Z,38.54
2018-03-31T06:37:32.058Z,38.62
2018-03-31T06:39:57.920Z,38.60
2018-03-31T06:42:23.851Z,39.01
2018-03-31T06:44:49.714Z,38.70
2018-03-31T06:47:15.606Z,39.19
2018-03-31T06:49:41.508Z,38.92
2018-03-31T06:52:07.359Z,38.44
2018-03-31T06:54:33.259Z,38.33
2018-03-31T06:56:59.154Z,38.32
2018-03-31T06:59:25.012Z,38.49
2018-03-31T07:01:50.866Z,39.19
2018-03-31T07:04:16.723Z,38.78
2018-03-31T07:06:42.578Z,38.90
2018-03-31T07:09:08.435Z,38.55
2018-03-31T07:11:34.299Z,39.02
2018-03-31T07:14:00.151Z,38.90
2018-03-31T07:16:25.996Z,38.50
2018-03-31T07:18:51.852Z,39.01
2018-03-31T07:21:17.718Z,38.94
2018-03-31T07:23:43.575Z,39.46
2018-03-31T07:26:09.431Z,38.75
2018-03-31T07:28:35.283Z,38.59
2018-03-31T07:31:01.138Z,38.70
2018-03-31T07:33:26.998Z,38.43
2018-03-31T07:35:52.857Z,38.86
2018-03-31T07:38:18.711Z,38.34
2018-03-31T07:40:44.659Z,38.14
2018-03-31T07:43:10.494Z,38.50
2018-03-31T07:45:36.422Z,38.26
2018-03-31T07:48:02.328Z,38.37
2018-03-31T07:50:28.192Z,38.27
2018-03-31T07:52:54.038Z,37.99
2018-03-31T07:55:19.883Z,37.93
2018-03-31T07:57:45.908Z,38.25
2018-03-31T08:00:11.921Z,38.02
2018-03-31T08:02:37.775Z,38.44
2018-03-31T08:05:03.785Z,38.57
2018-03-31T08:07:29.643Z,38.30
2018-03-31T08:09:55.509Z,38.34
2018-03-31T08:12:21.435Z,38.65
2018-03-31T08:14:47.304Z,38.62
2018-03-31T08:17:13.164Z,38.43
2018-03-31T08:19:39.128Z,38.70
2018-03-31T08:22:04.996Z,38.23
2018-03-31T08:24:30.892Z,38.02
2018-03-31T08:26:56.752Z,38.20
2018-03-31T08:29:22.695Z,38.61
2018-03-31T08:31:48.574Z,38.47
2018-03-31T08:34:14.499Z,38.20
2018-03-31T08:36:40.414Z,38.98
2018-03-31T08:39:06.274Z,40.23
2018-03-31T08:41:32.143Z,40.41
2018-03-31T08:43:58.122Z,40.45
2018-03-31T08:46:24.026Z,39.58
2018-03-31T08:48:49.883Z,39.30
2018-03-31T08:51:15.880Z,39.30
2018-03-31T08:53:41.750Z,39.06
2018-03-31T08:56:07.623Z,39.30
2018-03-31T08:58:33.491Z,39.36
2018-03-31T09:00:59.350Z,39.09
2018-03-31T09:03:25.224Z,40.18
2018-03-31T09:05:51.091Z,40.21
2018-03-31T09:08:17.108Z,40.17
2018-03-31T09:10:43.139Z,39.53
2018-03-31T09:13:08.995Z,39.51
2018-03-31T09:15:34.853Z,39.88
2018-03-31T09:18:02.836Z,39.64
2018-03-31T09:20:28.699Z,39.67
2018-03-31T09:22:54.591Z,39.64
2018-03-31T09:25:20.455Z,39.86
2018-03-31T09:27:46.334Z,40.07
2018-03-31T09:30:12.190Z,41.05
2018-03-31T09:32:38.048Z,40.38
2018-03-31T09:35:03.906Z,40.53
2018-03-31T09:37:29.776Z,40.39
2018-03-31T09:39:55.657Z,41.37
2018-03-31T09:42:21.552Z,40.93
2018-03-31T09:44:47.444Z,41.11
2018-03-31T09:47:13.333Z,41.12
2018-03-31T09:49:39.389Z,41.05
2018-03-31T09:52:05.246Z,40.80
2018-03-31T09:54:31.094Z,40.71
2018-03-31T09:56:56.955Z,41.87
2018-03-31T09:59:22.810Z,41.02
